sensor_id;sensor_type;location;lat;lon;timestamp;pressure;altitude;pressure_sealevel;temperature;humidity
21644;BME280;10983;51.982;9.226;2023-04-30T00:01:42;99776.28;;;20.48;100.00
21644;BME280;10983;51.982;9.226;2023-04-30T00:04:10;99776.28;;;20.48;100.00
21644;BME280;10983;51.982;9.226;2023-04-30T00:06:37;99776.28;;;20.48;100.00
21644;BME280;10983;51.982;9.226;2023-04-30T00:09:05;99776.28;;;20.48;100.00
21644;BME280;10983;51.982;9.226;2023-04-30T00:11:33;99776.28;;;20.48;100.00
21644;BME280;10983;51.982;9.226;2023-04-30T00:14:00;99776.28;;;20.48;100.00
21644;BME280;10983;51.982;9.226;2023-04-30T00:16:29;99776.28;;;20.48;100.00
21644;BME280;10983;51.982;9.226;2023-04-30T00:18:57;99776.28;;;20.48;100.00
21644;BME280;10983;51.982;9.226;2023-04-30T00:21:24;99776.28;;;20.48;100.00
21644;BME280;10983;51.982;9.226;2023-04-30T00:23:53;99776.28;;;20.48;100.00
21644;BME280;10983;51.982;9.226;2023-04-30T00:26:20;99776.28;;;20.48;100.00
21644;BME280;10983;51.982;9.226;2023-04-30T00:28:47;99776.28;;;20.48;100.00
21644;BME280;10983;51.982;9.226;2023-04-30T00:31:15;99776.28;;;20.48;100.00
21644;BME280;10983;51.982;9.226;2023-04-30T00:33:44;99776.28;;;20.48;100.00
21644;BME280;10983;51.982;9.226;2023-04-30T00:36:12;99776.28;;;20.48;100.00
21644;BME280;10983;51.982;9.226;2023-04-30T00:38:39;99776.28;;;20.48;100.00
21644;BME280;10983;51.982;9.226;2023-04-30T00:41:07;99776.28;;;20.48;100.00
21644;BME280;10983;51.982;9.226;2023-04-30T00:43:35;99776.28;;;20.48;100.00
21644;BME280;10983;51.982;9.226;2023-04-30T00:46:02;100580.28;;;5.52;100.00
21644;BME280;10983;51.982;9.226;2023-04-30T00:48:32;100604.09;;;5.58;100.00
21644;BME280;10983;51.982;9.226;2023-04-30T00:51:01;100604.09;;;5.58;100.00
21644;BME280;10983;51.982;9.226;2023-04-30T00:53:30;100604.09;;;5.58;100.00
21644;BME280;10983;51.982;9.226;2023-04-30T00:55:57;100604.09;;;5.58;100.00
21644;BME280;10983;51.982;9.226;2023-04-30T00:58:25;100604.09;;;5.58;100.00
21644;BME280;10983;51.982;9.226;2023-04-30T01:00:53;100604.09;;;5.58;100.00
21644;BME280;10983;51.982;9.226;2023-04-30T01:03:20;100604.09;;;5.58;100.00
21644;BME280;10983;51.982;9.226;2023-04-30T01:05:48;100604.09;;;5.58;100.00
21644;BME280;10983;51.982;9.226;2023-04-30T01:08:17;100604.09;;;5.58;100.00
21644;BME280;10983;51.982;9.226;2023-04-30T01:10:47;100604.09;;;5.58;100.00
21644;BME280;10983;51.982;9.226;2023-04-30T01:13:20;100607.44;;;4.74;100.00
21644;BME280;10983;51.982;9.226;2023-04-30T01:15:53;100618.13;;;4.58;100.00
21644;BME280;10983;51.982;9.226;2023-04-30T01:18:27;100625.84;;;4.60;100.00
21644;BME280;10983;51.982;9.226;2023-04-30T01:20:59;100633.16;;;4.50;100.00
21644;BME280;10983;51.982;9.226;2023-04-30T01:23:41;100633.16;;;4.50;100.00
21644;BME280;10983;51.982;9.226;2023-04-30T01:26:13;100633.16;;;4.50;100.00
21644;BME280;10983;51.982;9.226;2023-04-30T01:28:45;100633.16;;;4.50;100.00
21644;BME280;10983;51.982;9.226;2023-04-30T01:31:13;100633.16;;;4.50;100.00
21644;BME280;10983;51.982;9.226;2023-04-30T01:33:41;100633.16;;;4.50;100.00
21644;BME280;10983;51.982;9.226;2023-04-30T01:39:18;100633.16;;;4.50;100.00
21644;BME280;10983;51.982;9.226;2023-04-30T01:41:50;100633.16;;;4.50;100.00
21644;BME280;10983;51.982;9.226;2023-04-30T01:44:37;100633.16;;;4.50;100.00
21644;BME280;10983;51.982;9.226;2023-04-30T01:47:13;100633.16;;;4.50;100.00
21644;BME280;10983;51.982;9.226;2023-04-30T01:49:50;100633.16;;;4.50;100.00
21644;BME280;10983;51.982;9.226;2023-04-30T01:52:30;100633.16;;;4.50;100.00
21644;BME280;10983;51.982;9.226;2023-04-30T01:55:00;100633.16;;;4.50;100.00
21644;BME280;10983;51.982;9.226;2023-04-30T01:57:36;100633.16;;;4.50;100.00
21644;BME280;10983;51.982;9.226;2023-04-30T02:00:07;100633.16;;;4.50;100.00
21644;BME280;10983;51.982;9.226;2023-04-30T02:02:36;100633.16;;;4.50;100.00
21644;BME280;10983;51.982;9.226;2023-04-30T02:05:04;100633.16;;;4.50;100.00
21644;BME280;10983;51.982;9.226;2023-04-30T02:07:36;100633.16;;;4.50;100.00
21644;BME280;10983;51.982;9.226;2023-04-30T02:10:06;100633.16;;;4.50;100.00
21644;BME280;10983;51.982;9.226;2023-04-30T02:12:34;100633.16;;;4.50;100.00
21644;BME280;10983;51.982;9.226;2023-04-30T02:15:02;100633.16;;;4.50;100.00
21644;BME280;10983;51.982;9.226;2023-04-30T02:17:32;100633.16;;;4.50;100.00
21644;BME280;10983;51.982;9.226;2023-04-30T02:19:59;100633.16;;;4.50;100.00
21644;BME280;10983;51.982;9.226;2023-04-30T02:22:27;100633.16;;;4.50;100.00
21644;BME280;10983;51.982;9.226;2023-04-30T02:24:54;100633.16;;;4.50;100.00
21644;BME280;10983;51.982;9.226;2023-04-30T02:27:24;100633.16;;;4.50;100.00
21644;BME280;10983;51.982;9.226;2023-04-30T02:29:52;100633.16;;;4.50;100.00
21644;BME280;10983;51.982;9.226;2023-04-30T02:32:20;100633.16;;;4.50;100.00
21644;BME280;10983;51.982;9.226;2023-04-30T02:34:49;100633.16;;;4.50;100.00
21644;BME280;10983;51.982;9.226;2023-04-30T02:37:16;100633.16;;;4.50;100.00
21644;BME280;10983;51.982;9.226;2023-04-30T02:39:44;100633.16;;;4.50;100.00
21644;BME280;10983;51.982;9.226;2023-04-30T02:42:11;100633.16;;;4.50;100.00
21644;BME280;10983;51.982;9.226;2023-04-30T02:44:39;100633.16;;;4.50;100.00
21644;BME280;10983;51.982;9.226;2023-04-30T02:47:07;100633.16;;;4.50;100.00
21644;BME280;10983;51.982;9.226;2023-04-30T02:49:34;100633.16;;;4.50;100.00
21644;BME280;10983;51.982;9.226;2023-04-30T02:52:03;100633.16;;;4.50;100.00
21644;BME280;10983;51.982;9.226;2023-04-30T02:54:31;100633.16;;;4.50;100.00
21644;BME280;10983;51.982;9.226;2023-04-30T02:56:58;100633.16;;;4.50;100.00
21644;BME280;10983;51.982;9.226;2023-04-30T02:59:26;100633.16;;;4.50;100.00
21644;BME280;10983;51.982;9.226;2023-04-30T03:01:54;100633.16;;;4.50;100.00
21644;BME280;10983;51.982;9.226;2023-04-30T03:04:21;100633.16;;;4.50;100.00
21644;BME280;10983;51.982;9.226;2023-04-30T03:06:49;100633.16;;;4.50;100.00
21644;BME280;10983;51.982;9.226;2023-04-30T03:09:17;100633.16;;;4.50;100.00
21644;BME280;10983;51.982;9.226;2023-04-30T03:11:45;100633.16;;;4.50;100.00
21644;BME280;10983;51.982;9.226;2023-04-30T03:14:13;100633.16;;;4.50;100.00
21644;BME280;10983;51.982;9.226;2023-04-30T03:16:40;100633.16;;;4.50;100.00
21644;BME280;10983;51.982;9.226;2023-04-30T03:19:08;100633.16;;;4.50;100.00
21644;BME280;10983;51.982;9.226;2023-04-30T03:21:35;100633.16;;;4.50;100.00
21644;BME280;10983;51.982;9.226;2023-04-30T03:24:03;100633.16;;;4.50;100.00
21644;BME280;10983;51.982;9.226;2023-04-30T03:26:31;100633.16;;;4.50;100.00
21644;BME280;10983;51.982;9.226;2023-04-30T03:28:59;100633.16;;;4.50;100.00
21644;BME280;10983;51.982;9.226;2023-04-30T03:31:27;100633.16;;;4.50;100.00
21644;BME280;10983;51.982;9.226;2023-04-30T03:33:54;100633.16;;;4.50;100.00
21644;BME280;10983;51.982;9.226;2023-04-30T03:36:22;100633.16;;;4.50;100.00
21644;BME280;10983;51.982;9.226;2023-04-30T03:38:49;100633.16;;;4.50;100.00
21644;BME280;10983;51.982;9.226;2023-04-30T03:41:17;100633.16;;;4.50;100.00
21644;BME280;10983;51.982;9.226;2023-04-30T03:43:46;100633.16;;;4.50;100.00
21644;BME280;10983;51.982;9.226;2023-04-30T03:46:13;100633.16;;;4.50;100.00
21644;BME280;10983;51.982;9.226;2023-04-30T03:48:41;100633.16;;;4.50;100.00
21644;BME280;10983;51.982;9.226;2023-04-30T03:51:09;100633.16;;;4.50;100.00
21644;BME280;10983;51.982;9.226;2023-04-30T03:53:36;100633.16;;;4.50;100.00
21644;BME280;10983;51.982;9.226;2023-04-30T03:56:04;100633.16;;;4.50;100.00
21644;BME280;10983;51.982;9.226;2023-04-30T03:58:32;100633.16;;;4.50;100.00
21644;BME280;10983;51.982;9.226;2023-04-30T04:01:01;100633.16;;;4.50;100.00
21644;BME280;10983;51.982;9.226;2023-04-30T04:03:29;100633.16;;;4.50;100.00
21644;BME280;10983;51.982;9.226;2023-04-30T04:05:57;100633.16;;;4.50;100.00
21644;BME280;10983;51.982;9.226;2023-04-30T04:08:25;100633.16;;;4.50;100.00
21644;BME280;10983;51.982;9.226;2023-04-30T04:10:52;100633.16;;;4.50;100.00
21644;BME280;10983;51.982;9.226;2023-04-30T04:13:19;100633.16;;;4.50;100.00
21644;BME280;10983;51.982;9.226;2023-04-30T04:15:47;100633.16;;;4.50;100.00
21644;BME280;10983;51.982;9.226;2023-04-30T04:18:16;100633.16;;;4.50;100.00
21644;BME280;10983;51.982;9.226;2023-04-30T04:20:43;100633.16;;;4.50;100.00
21644;BME280;10983;51.982;9.226;2023-04-30T04:23:10;100633.16;;;4.50;100.00
21644;BME280;10983;51.982;9.226;2023-04-30T04:25:38;100633.16;;;4.50;100.00
21644;BME280;10983;51.982;9.226;2023-04-30T04:28:06;100633.16;;;4.50;100.00
21644;BME280;10983;51.982;9.226;2023-04-30T04:30:34;100633.16;;;4.50;100.00
21644;BME280;10983;51.982;9.226;2023-04-30T04:33:02;100633.16;;;4.50;100.00
21644;BME280;10983;51.982;9.226;2023-04-30T04:35:32;100633.16;;;4.50;100.00
21644;BME280;10983;51.982;9.226;2023-04-30T04:38:00;100633.16;;;4.50;100.00
21644;BME280;10983;51.982;9.226;2023-04-30T04:40:28;100633.16;;;4.50;100.00
21644;BME280;10983;51.982;9.226;2023-04-30T04:42:57;100633.16;;;4.50;100.00
21644;BME280;10983;51.982;9.226;2023-04-30T04:45:25;100633.16;;;4.50;100.00
21644;BME280;10983;51.982;9.226;2023-04-30T04:47:52;100633.16;;;4.50;100.00
21644;BME280;10983;51.982;9.226;2023-04-30T04:50:19;100633.16;;;4.50;100.00
21644;BME280;10983;51.982;9.226;2023-04-30T04:52:49;100633.16;;;4.50;100.00
21644;BME280;10983;51.982;9.226;2023-04-30T04:55:16;100633.16;;;4.50;100.00
21644;BME280;10983;51.982;9.226;2023-04-30T04:57:44;100633.16;;;4.50;100.00
21644;BME280;10983;51.982;9.226;2023-04-30T05:00:11;100633.16;;;4.50;100.00
21644;BME280;10983;51.982;9.226;2023-04-30T05:02:39;100633.16;;;4.50;100.00
21644;BME280;10983;51.982;9.226;2023-04-30T05:05:07;100633.16;;;4.50;100.00
21644;BME280;10983;51.982;9.226;2023-04-30T05:07:36;100633.16;;;4.50;100.00
21644;BME280;10983;51.982;9.226;2023-04-30T05:10:06;100633.16;;;4.50;100.00
21644;BME280;10983;51.982;9.226;2023-04-30T05:12:34;100633.16;;;4.50;100.00
21644;BME280;10983;51.982;9.226;2023-04-30T05:15:03;100633.16;;;4.50;100.00
21644;BME280;10983;51.982;9.226;2023-04-30T05:17:31;100633.16;;;4.50;100.00
21644;BME280;10983;51.982;9.226;2023-04-30T05:19:59;100633.16;;;4.50;100.00
21644;BME280;10983;51.982;9.226;2023-04-30T05:22:27;100633.16;;;4.50;100.00
21644;BME280;10983;51.982;9.226;2023-04-30T05:24:54;100633.16;;;4.50;100.00
21644;BME280;10983;51.982;9.226;2023-04-30T05:27:23;100633.16;;;4.50;100.00
21644;BME280;10983;51.982;9.226;2023-04-30T05:29:50;100633.16;;;4.50;100.00
21644;BME280;10983;51.982;9.226;2023-04-30T05:32:18;100633.16;;;4.50;100.00
21644;BME280;10983;51.982;9.226;2023-04-30T05:34:46;100633.16;;;4.50;100.00
21644;BME280;10983;51.982;9.226;2023-04-30T05:37:13;100633.16;;;4.50;100.00
21644;BME280;10983;51.982;9.226;2023-04-30T05:39:42;100633.16;;;4.50;100.00
21644;BME280;10983;51.982;9.226;2023-04-30T05:42:10;100633.16;;;4.50;100.00
21644;BME280;10983;51.982;9.226;2023-04-30T05:44:38;100633.16;;;4.50;100.00
21644;BME280;10983;51.982;9.226;2023-04-30T05:47:06;100633.16;;;4.50;100.00
21644;BME280;10983;51.982;9.226;2023-04-30T05:49:34;100633.16;;;4.50;100.00
21644;BME280;10983;51.982;9.226;2023-04-30T05:52:01;100633.16;;;4.50;100.00
21644;BME280;10983;51.982;9.226;2023-04-30T05:54:29;100633.16;;;4.50;100.00
21644;BME280;10983;51.982;9.226;2023-04-30T05:56:57;100633.16;;;4.50;100.00
21644;BME280;10983;51.982;9.226;2023-04-30T05:59:24;100633.16;;;4.50;100.00
21644;BME280;10983;51.982;9.226;2023-04-30T06:01:53;100916.97;;;5.96;100.00
21644;BME280;10983;51.982;9.226;2023-04-30T06:04:21;100916.97;;;5.96;100.00
21644;BME280;10983;51.982;9.226;2023-04-30T06:06:48;100916.97;;;5.96;100.00
21644;BME280;10983;51.982;9.226;2023-04-30T06:09:16;100951.41;;;6.60;100.00
21644;BME280;10983;51.982;9.226;2023-04-30T06:11:44;100960.41;;;6.66;100.00
21644;BME280;10983;51.982;9.226;2023-04-30T06:14:15;100960.41;;;6.66;100.00
21644;BME280;10983;51.982;9.226;2023-04-30T06:16:43;100960.41;;;6.66;100.00
21644;BME280;10983;51.982;9.226;2023-04-30T06:19:12;100960.41;;;6.66;100.00
21644;BME280;10983;51.982;9.226;2023-04-30T06:21:40;100960.41;;;6.66;100.00
21644;BME280;10983;51.982;9.226;2023-04-30T06:24:09;100960.41;;;6.66;100.00
21644;BME280;10983;51.982;9.226;2023-04-30T06:26:37;100960.41;;;6.66;100.00
21644;BME280;10983;51.982;9.226;2023-04-30T06:29:07;100960.41;;;6.66;100.00
21644;BME280;10983;51.982;9.226;2023-04-30T06:31:34;100960.41;;;6.66;100.00
21644;BME280;10983;51.982;9.226;2023-04-30T06:34:02;100960.41;;;6.66;100.00
21644;BME280;10983;51.982;9.226;2023-04-30T06:36:30;100960.41;;;6.66;100.00
21644;BME280;10983;51.982;9.226;2023-04-30T06:38:58;100960.41;;;6.66;100.00
21644;BME280;10983;51.982;9.226;2023-04-30T06:41:25;100960.41;;;6.66;100.00
21644;BME280;10983;51.982;9.226;2023-04-30T06:43:53;100960.41;;;6.66;100.00
21644;BME280;10983;51.982;9.226;2023-04-30T06:46:20;100603.19;;;8.74;100.00
21644;BME280;10983;51.982;9.226;2023-04-30T06:48:48;100603.19;;;8.74;100.00
21644;BME280;10983;51.982;9.226;2023-04-30T06:51:15;100587.53;;;9.29;100.00
21644;BME280;10983;51.982;9.226;2023-04-30T06:53:44;100587.53;;;9.29;100.00
21644;BME280;10983;51.982;9.226;2023-04-30T06:56:11;100665.56;;;9.78;100.00
21644;BME280;10983;51.982;9.226;2023-04-30T06:58:39;100729.88;;;9.80;100.00
21644;BME280;10983;51.982;9.226;2023-04-30T07:01:06;100771.34;;;10.01;100.00
21644;BME280;10983;51.982;9.226;2023-04-30T07:03:34;100826.81;;;10.34;100.00
21644;BME280;10983;51.982;9.226;2023-04-30T07:06:02;100869.94;;;10.36;100.00
21644;BME280;10983;51.982;9.226;2023-04-30T07:08:29;100897.50;;;10.55;100.00
21644;BME280;10983;51.982;9.226;2023-04-30T07:10:58;100917.06;;;10.73;100.00
21644;BME280;10983;51.982;9.226;2023-04-30T07:13:25;100917.06;;;10.73;100.00
21644;BME280;10983;51.982;9.226;2023-04-30T07:15:53;100917.06;;;10.73;100.00
21644;BME280;10983;51.982;9.226;2023-04-30T07:18:20;100917.06;;;10.73;100.00
21644;BME280;10983;51.982;9.226;2023-04-30T07:20:48;100917.06;;;10.73;100.00
21644;BME280;10983;51.982;9.226;2023-04-30T07:23:15;100917.06;;;10.73;100.00
21644;BME280;10983;51.982;9.226;2023-04-30T07:25:43;101023.66;;;11.78;100.00
21644;BME280;10983;51.982;9.226;2023-04-30T07:28:11;101032.47;;;11.78;100.00
21644;BME280;10983;51.982;9.226;2023-04-30T07:30:39;101043.69;;;11.87;100.00
21644;BME280;10983;51.982;9.226;2023-04-30T07:33:08;101042.53;;;12.07;100.00
21644;BME280;10983;51.982;9.226;2023-04-30T07:35:37;101065.81;;;12.18;100.00
21644;BME280;10983;51.982;9.226;2023-04-30T07:38:04;101073.38;;;12.21;100.00
21644;BME280;10983;51.982;9.226;2023-04-30T07:40:32;101087.50;;;12.52;100.00
21644;BME280;10983;51.982;9.226;2023-04-30T07:43:01;101097.34;;;12.52;100.00
21644;BME280;10983;51.982;9.226;2023-04-30T07:45:31;101118.09;;;12.50;100.00
21644;BME280;10983;51.982;9.226;2023-04-30T07:47:59;101131.16;;;12.82;100.00
21644;BME280;10983;51.982;9.226;2023-04-30T07:50:26;101132.56;;;12.91;100.00
21644;BME280;10983;51.982;9.226;2023-04-30T07:53:00;101139.34;;;12.63;100.00
21644;BME280;10983;51.982;9.226;2023-04-30T07:55:27;101139.50;;;12.92;100.00
21644;BME280;10983;51.982;9.226;2023-04-30T07:57:55;101150.84;;;12.88;100.00
21644;BME280;10983;51.982;9.226;2023-04-30T08:00:22;101151.59;;;13.19;100.00
21644;BME280;10983;51.982;9.226;2023-04-30T08:02:52;101155.88;;;13.20;100.00
21644;BME280;10983;51.982;9.226;2023-04-30T08:05:20;101152.34;;;12.53;100.00
21644;BME280;10983;51.982;9.226;2023-04-30T08:07:48;101158.00;;;12.93;100.00
21644;BME280;10983;51.982;9.226;2023-04-30T08:10:15;101151.38;;;12.96;100.00
21644;BME280;10983;51.982;9.226;2023-04-30T08:12:42;101152.63;;;13.36;100.00
21644;BME280;10983;51.982;9.226;2023-04-30T08:15:10;101150.91;;;13.41;100.00
21644;BME280;10983;51.982;9.226;2023-04-30T08:17:37;101159.31;;;13.45;100.00
21644;BME280;10983;51.982;9.226;2023-04-30T08:20:07;101155.22;;;13.78;100.00
21644;BME280;10983;51.982;9.226;2023-04-30T08:22:35;101161.84;;;13.75;100.00
21644;BME280;10983;51.982;9.226;2023-04-30T08:25:02;101160.81;;;13.76;100.00
21644;BME280;10983;51.982;9.226;2023-04-30T08:27:30;101165.75;;;13.91;100.00
21644;BME280;10983;51.982;9.226;2023-04-30T08:29:58;101160.44;;;14.02;100.00
21644;BME280;10983;51.982;9.226;2023-04-30T08:32:26;101162.38;;;13.48;100.00
21644;BME280;10983;51.982;9.226;2023-04-30T08:34:54;101159.50;;;13.97;100.00
21644;BME280;10983;51.982;9.226;2023-04-30T08:37:23;101153.41;;;14.37;100.00
21644;BME280;10983;51.982;9.226;2023-04-30T08:39:50;101169.13;;;14.45;100.00
21644;BME280;10983;51.982;9.226;2023-04-30T08:42:20;101168.41;;;14.38;100.00
21644;BME280;10983;51.982;9.226;2023-04-30T08:44:51;101157.16;;;13.71;100.00
21644;BME280;10983;51.982;9.226;2023-04-30T08:47:19;101173.63;;;14.33;100.00
21644;BME280;10983;51.982;9.226;2023-04-30T08:49:47;101171.16;;;14.60;100.00
21644;BME280;10983;51.982;9.226;2023-04-30T08:52:15;101171.78;;;14.85;100.00
21644;BME280;10983;51.982;9.226;2023-04-30T08:54:44;101167.81;;;14.99;100.00
21644;BME280;10983;51.982;9.226;2023-04-30T08:57:12;101170.28;;;15.23;100.00
21644;BME280;10983;51.982;9.226;2023-04-30T08:59:40;101171.78;;;15.54;100.00
21644;BME280;10983;51.982;9.226;2023-04-30T09:02:07;101170.84;;;15.99;100.00
21644;BME280;10983;51.982;9.226;2023-04-30T09:04:35;101174.38;;;16.27;100.00
21644;BME280;10983;51.982;9.226;2023-04-30T09:07:03;101171.78;;;16.76;100.00
21644;BME280;10983;51.982;9.226;2023-04-30T09:09:37;101177.06;;;17.04;100.00
21644;BME280;10983;51.982;9.226;2023-04-30T09:12:13;101171.75;;;17.42;100.00
21644;BME280;10983;51.982;9.226;2023-04-30T09:14:57;101173.28;;;17.05;100.00
21644;BME280;10983;51.982;9.226;2023-04-30T09:17:26;101157.88;;;17.71;100.00
21644;BME280;10983;51.982;9.226;2023-04-30T09:19:53;101166.88;;;17.60;100.00
21644;BME280;10983;51.982;9.226;2023-04-30T09:22:23;101162.97;;;18.36;100.00
21644;BME280;10983;51.982;9.226;2023-04-30T09:24:50;101161.19;;;18.20;100.00
21644;BME280;10983;51.982;9.226;2023-04-30T09:27:21;101156.84;;;18.72;100.00
21644;BME280;10983;51.982;9.226;2023-04-30T09:29:49;101161.81;;;19.21;100.00
21644;BME280;10983;51.982;9.226;2023-04-30T09:32:16;101159.09;;;19.62;100.00
21644;BME280;10983;51.982;9.226;2023-04-30T09:34:44;101155.34;;;19.22;100.00
21644;BME280;10983;51.982;9.226;2023-04-30T09:37:11;101169.78;;;19.06;100.00
21644;BME280;10983;51.982;9.226;2023-04-30T09:39:46;101170.25;;;17.50;100.00
21644;BME280;10983;51.982;9.226;2023-04-30T09:42:15;101158.50;;;17.02;100.00
21644;BME280;10983;51.982;9.226;2023-04-30T09:44:43;101153.84;;;18.42;100.00
21644;BME280;10983;51.982;9.226;2023-04-30T09:47:11;101152.66;;;18.91;100.00
21644;BME280;10983;51.982;9.226;2023-04-30T09:49:41;101157.56;;;19.86;100.00
21644;BME280;10983;51.982;9.226;2023-04-30T09:52:10;101152.06;;;19.61;100.00
21644;BME280;10983;51.982;9.226;2023-04-30T09:54:38;101159.56;;;18.77;100.00
21644;BME280;10983;51.982;9.226;2023-04-30T09:57:09;101156.84;;;20.05;100.00
21644;BME280;10983;51.982;9.226;2023-04-30T09:59:37;101157.78;;;20.65;100.00
21644;BME280;10983;51.982;9.226;2023-04-30T10:02:13;101151.81;;;21.28;100.00
21644;BME280;10983;51.982;9.226;2023-04-30T10:04:44;101156.44;;;20.78;100.00
21644;BME280;10983;51.982;9.226;2023-04-30T10:07:16;101158.06;;;20.69;100.00
21644;BME280;10983;51.982;9.226;2023-04-30T10:09:49;101162.03;;;19.61;100.00
21644;BME280;10983;51.982;9.226;2023-04-30T10:12:21;101148.06;;;19.73;100.00
21644;BME280;10983;51.982;9.226;2023-04-30T10:14:52;101149.38;;;21.21;100.00
21644;BME280;10983;51.982;9.226;2023-04-30T10:17:25;101149.97;;;19.78;100.00
21644;BME280;10983;51.982;9.226;2023-04-30T10:19:56;101137.72;;;20.27;100.00
21644;BME280;10983;51.982;9.226;2023-04-30T10:22:25;101136.56;;;19.98;100.00
21644;BME280;10983;51.982;9.226;2023-04-30T10:24:53;101143.66;;;19.07;100.00
21644;BME280;10983;51.982;9.226;2023-04-30T10:27:20;101133.44;;;19.60;100.00
21644;BME280;10983;51.982;9.226;2023-04-30T10:29:49;101134.63;;;19.88;100.00
21644;BME280;10983;51.982;9.226;2023-04-30T10:32:17;101126.66;;;21.17;100.00
21644;BME280;10983;51.982;9.226;2023-04-30T10:34:51;101128.34;;;22.34;100.00
21644;BME280;10983;51.982;9.226;2023-04-30T10:37:27;101128.56;;;22.76;100.00
21644;BME280;10983;51.982;9.226;2023-04-30T10:39:57;101117.16;;;23.54;100.00
21644;BME280;10983;51.982;9.226;2023-04-30T10:42:25;101123.09;;;23.61;100.00
21644;BME280;10983;51.982;9.226;2023-04-30T10:44:54;101106.34;;;24.32;100.00
21644;BME280;10983;51.982;9.226;2023-04-30T10:47:27;101116.13;;;23.03;100.00
21644;BME280;10983;51.982;9.226;2023-04-30T10:50:03;101115.69;;;22.15;100.00
21644;BME280;10983;51.982;9.226;2023-04-30T10:52:30;101118.25;;;20.20;100.00
21644;BME280;10983;51.982;9.226;2023-04-30T10:54:58;101114.16;;;20.07;100.00
21644;BME280;10983;51.982;9.226;2023-04-30T10:57:28;101107.06;;;21.60;100.00
21644;BME280;10983;51.982;9.226;2023-04-30T11:00:17;101105.66;;;23.15;100.00
21644;BME280;10983;51.982;9.226;2023-04-30T11:02:45;101100.69;;;22.99;100.00
21644;BME280;10983;51.982;9.226;2023-04-30T11:05:16;101094.50;;;20.66;100.00
21644;BME280;10983;51.982;9.226;2023-04-30T11:07:46;101100.19;;;19.49;100.00
21644;BME280;10983;51.982;9.226;2023-04-30T11:10:15;101102.34;;;19.52;100.00
21644;BME280;10983;51.982;9.226;2023-04-30T11:12:50;101097.94;;;19.92;100.00
21644;BME280;10983;51.982;9.226;2023-04-30T11:15:19;101100.69;;;20.27;100.00
21644;BME280;10983;51.982;9.226;2023-04-30T11:17:48;101094.50;;;20.56;100.00
21644;BME280;10983;51.982;9.226;2023-04-30T11:20:22;101094.22;;;20.18;100.00
21644;BME280;10983;51.982;9.226;2023-04-30T11:23:07;101099.03;;;20.11;100.00
21644;BME280;10983;51.982;9.226;2023-04-30T11:25:39;101097.34;;;19.19;100.00
21644;BME280;10983;51.982;9.226;2023-04-30T11:28:10;101095.88;;;19.53;100.00
21644;BME280;10983;51.982;9.226;2023-04-30T11:30:40;101088.28;;;20.21;100.00
21644;BME280;10983;51.982;9.226;2023-04-30T11:33:08;101087.22;;;20.57;100.00
21644;BME280;10983;51.982;9.226;2023-04-30T11:35:38;101081.88;;;22.07;100.00
21644;BME280;10983;51.982;9.226;2023-04-30T11:38:06;101084.78;;;22.87;100.00
21644;BME280;10983;51.982;9.226;2023-04-30T11:40:34;101071.88;;;24.09;100.00
21644;BME280;10983;51.982;9.226;2023-04-30T11:43:02;101083.38;;;22.61;100.00
21644;BME280;10983;51.982;9.226;2023-04-30T11:45:30;101074.94;;;21.92;100.00
21644;BME280;10983;51.982;9.226;2023-04-30T11:47:57;101073.50;;;21.51;100.00
21644;BME280;10983;51.982;9.226;2023-04-30T11:50:26;101070.13;;;21.79;100.00
21644;BME280;10983;51.982;9.226;2023-04-30T11:53:00;101067.56;;;21.44;100.00
21644;BME280;10983;51.982;9.226;2023-04-30T11:55:29;101064.41;;;23.18;100.00
21644;BME280;10983;51.982;9.226;2023-04-30T11:57:57;101061.03;;;24.91;100.00
21644;BME280;10983;51.982;9.226;2023-04-30T12:00:27;101048.66;;;25.12;100.00
21644;BME280;10983;51.982;9.226;2023-04-30T12:02:56;101076.00;;;22.67;100.00
21644;BME280;10983;51.982;9.226;2023-04-30T12:05:26;101065.34;;;21.61;100.00
21644;BME280;10983;51.982;9.226;2023-04-30T12:07:55;101059.19;;;24.23;100.00
21644;BME280;10983;51.982;9.226;2023-04-30T12:10:24;101057.63;;;25.39;100.00
21644;BME280;10983;51.982;9.226;2023-04-30T12:12:52;101056.28;;;24.96;100.00
21644;BME280;10983;51.982;9.226;2023-04-30T12:15:21;101054.66;;;24.82;100.00
21644;BME280;10983;51.982;9.226;2023-04-30T12:17:52;101044.88;;;25.61;100.00
21644;BME280;10983;51.982;9.226;2023-04-30T12:20:21;101052.19;;;25.26;100.00
21644;BME280;10983;51.982;9.226;2023-04-30T12:22:49;101034.38;;;27.29;100.00
21644;BME280;10983;51.982;9.226;2023-04-30T12:25:19;101028.38;;;27.75;100.00
21644;BME280;10983;51.982;9.226;2023-04-30T12:27:48;101038.44;;;25.44;100.00
21644;BME280;10983;51.982;9.226;2023-04-30T12:30:18;101042.81;;;26.81;100.00
21644;BME280;10983;51.982;9.226;2023-04-30T12:32:48;101047.03;;;26.57;100.00
21644;BME280;10983;51.982;9.226;2023-04-30T12:35:17;101033.41;;;27.98;100.00
21644;BME280;10983;51.982;9.226;2023-04-30T12:37:47;101027.50;;;29.78;100.00
21644;BME280;10983;51.982;9.226;2023-04-30T12:40:17;101017.94;;;31.01;98.65
21644;BME280;10983;51.982;9.226;2023-04-30T12:42:45;101032.56;;;27.17;100.00
21644;BME280;10983;51.982;9.226;2023-04-30T12:45:44;101040.78;;;25.24;100.00
21644;BME280;10983;51.982;9.226;2023-04-30T12:48:13;101046.09;;;23.47;100.00
21644;BME280;10983;51.982;9.226;2023-04-30T12:50:41;101029.69;;;24.30;100.00
21644;BME280;10983;51.982;9.226;2023-04-30T12:53:09;101029.19;;;25.05;100.00
21644;BME280;10983;51.982;9.226;2023-04-30T12:55:37;101016.13;;;27.08;100.00
21644;BME280;10983;51.982;9.226;2023-04-30T12:58:05;101003.16;;;29.19;100.00